Time;durP1;ratioP1;P1;durP2;ratioP2;P2;SDS_P1;SDS_P2;PMS_P1;PMS_P2;Temp;Humidity;BMP_temperature;BMP_pressure;BME280_temperature;BME280_humidity;BME280_pressure;Samples;Min_cycle;Max_cycle;Signal;HPM_P1;HPM_P2
2021/11/16 00:00:56;;;;;;;24.43;7.07;;;;;;;8.68;95.78;96637.72;5018416;28;20225;-74
2021/11/16 00:03:23;;;;;;;22.67;9.00;;;;;;;8.68;95.57;96640.34;5019043;28;20670;-69
2021/11/16 00:05:51;;;;;;;29.07;7.33;;;;;;;8.97;95.42;96642.63;5017847;28;20211;-69
2021/11/16 00:08:17;;;;;;;14.87;6.50;;;;;;;8.84;94.89;96645.66;5018497;28;20210;-69
2021/11/16 00:10:44;;;;;;;21.17;7.47;;;;;;;8.88;94.67;96633.84;5018463;28;20221;-70
2021/11/16 00:13:11;;;;;;;23.27;9.37;;;;;;;8.95;94.94;96631.44;5018442;28;20217;-69
2021/11/16 00:15:39;;;;;;;24.37;8.07;;;;;;;9.00;94.53;96640.50;5017817;28;21415;-69
2021/11/16 00:18:06;;;;;;;20.63;6.43;;;;;;;8.98;94.49;96642.47;5018525;28;20202;-71
2021/11/16 00:20:35;;;;;;;19.13;7.43;;;;;;;8.92;94.08;96644.88;5017615;28;20251;-72
2021/11/16 00:23:03;;;;;;;27.23;8.30;;;;;;;8.93;94.84;96644.72;5016998;28;20206;-73
2021/11/16 00:25:34;;;;;;;22.07;9.67;;;;;;;8.63;96.24;96647.88;5017868;28;21019;-69
2021/11/16 00:28:01;;;;;;;24.10;7.40;;;;;;;8.72;95.59;96641.69;5017866;28;20200;-74
2021/11/16 00:30:27;;;;;;;29.93;8.97;;;;;;;8.65;95.67;96630.13;5015616;28;20233;-72
2021/11/16 00:32:54;;;;;;;28.30;8.97;;;;;;;8.84;95.50;96637.78;5018320;28;20202;-71
2021/11/16 00:35:21;;;;;;;12.23;5.53;;;;;;;9.04;95.00;96636.59;5017700;28;20229;-72
2021/11/16 00:37:47;;;;;;;19.03;7.50;;;;;;;8.92;95.19;96644.88;5017534;28;20201;-73
2021/11/16 00:40:19;;;;;;;21.27;8.47;;;;;;;9.16;95.20;96648.44;5018463;28;20240;-69
2021/11/16 00:42:47;;;;;;;21.07;8.07;;;;;;;8.68;95.71;96645.59;5017852;28;20214;-72
2021/11/16 00:45:14;;;;;;;28.50;7.33;;;;;;;8.68;95.81;96645.59;5017602;28;20216;-71
2021/11/16 00:47:40;;;;;;;24.70;7.17;;;;;;;8.82;95.87;96652.06;5016418;28;21147;-69
2021/11/16 00:50:08;;;;;;;25.13;8.50;;;;;;;9.11;95.38;96648.09;5018826;28;20309;-73
2021/11/16 00:52:36;;;;;;;22.53;9.00;;;;;;;9.04;95.01;96651.50;5017719;28;20213;-69
2021/11/16 00:55:03;;;;;;;24.57;8.83;;;;;;;8.87;95.29;96644.53;5016862;28;20689;-69
2021/11/16 00:57:31;;;;;;;23.07;7.67;;;;;;;8.96;95.35;96644.44;5016647;28;20210;-74
2021/11/16 00:59:57;;;;;;;20.23;8.53;;;;;;;8.57;96.66;96639.78;5017321;28;20237;-73
2021/11/16 01:02:24;;;;;;;19.90;8.77;;;;;;;8.65;96.76;96643.25;5018132;28;20213;-69
2021/11/16 01:04:51;;;;;;;24.97;7.23;;;;;;;8.68;96.32;96640.34;5017296;28;20260;-72
2021/11/16 01:07:20;;;;;;;17.13;7.27;;;;;;;8.83;96.91;96636.13;5016269;28;21280;-74
2021/11/16 01:09:47;;;;;;;20.53;7.37;;;;;;;8.91;96.31;96644.09;5017576;28;20229;-73
2021/11/16 01:12:15;;;;;;;21.50;6.07;;;;;;;8.78;95.76;96635.81;5017278;28;20710;-73
2021/11/16 01:14:43;;;;;;;12.10;6.50;;;;;;;9.00;96.43;96647.56;5017499;28;20202;-70
2021/11/16 01:17:11;;;;;;;19.57;6.50;;;;;;;8.97;95.78;96651.31;5016179;28;20880;-71
2021/11/16 01:19:38;;;;;;;29.73;8.90;;;;;;;8.92;95.22;96648.34;5016808;28;20594;-70
2021/11/16 01:22:05;;;;;;;20.40;7.20;;;;;;;8.87;95.74;96655.88;5017272;28;20202;-73
2021/11/16 01:24:33;;;;;;;29.17;7.27;;;;;;;8.68;95.01;96647.38;5017173;28;20980;-70
2021/11/16 01:26:59;;;;;;;31.80;9.43;;;;;;;8.78;94.99;96650.72;5016126;28;20742;-70
2021/11/16 01:29:26;;;;;;;17.17;8.23;;;;;;;8.83;94.48;96654.53;5014156;28;20225;-73
2021/11/16 01:31:56;;;;;;;19.73;8.17;;;;;;;9.05;95.10;96654.00;5017066;28;20205;-71
2021/11/16 01:34:27;;;;;;;23.40;6.70;;;;;;;8.81;95.53;96661.75;5016696;28;21155;-70
2021/11/16 01:36:55;;;;;;;14.23;7.63;;;;;;;8.90;95.20;96666.09;5016225;28;21025;-70
2021/11/16 01:39:22;;;;;;;22.40;6.93;;;;;;;8.91;94.90;96667.72;5016818;28;20257;-70
2021/11/16 01:41:48;;;;;;;32.80;8.37;;;;;;;8.87;94.65;96660.31;5017408;28;20210;-69
2021/11/16 01:44:15;;;;;;;22.20;6.73;;;;;;;8.94;94.38;96651.63;5016897;28;20259;-71
2021/11/16 01:46:42;;;;;;;28.00;7.27;;;;;;;8.85;94.55;96652.59;5016537;28;20209;-73
2021/11/16 01:49:10;;;;;;;12.73;6.90;;;;;;;8.79;96.76;96649.75;5017261;28;20252;-73
2021/11/16 01:51:38;;;;;;;38.97;9.30;;;;;;;8.82;95.94;96645.03;5016543;28;20208;-69
2021/11/16 01:54:06;;;;;;;25.00;7.10;;;;;;;8.71;95.86;96640.03;5016926;28;20205;-70
2021/11/16 01:56:37;;;;;;;18.03;7.33;;;;;;;8.81;95.88;96642.56;5016171;28;20986;-70
2021/11/16 01:59:04;;;;;;;14.70;6.33;;;;;;;8.79;95.32;96632.19;5016446;28;20217;-69
2021/11/16 02:01:31;;;;;;;17.50;6.57;;;;;;;8.94;95.05;96641.13;5017405;28;20230;-73
2021/11/16 02:03:58;;;;;;;13.67;6.97;;;;;;;8.74;94.92;96644.13;5017944;28;20201;-68
2021/11/16 02:06:28;;;;;;;16.60;7.37;;;;;;;9.04;95.22;96641.00;5015809;28;20206;-70
2021/11/16 02:08:57;;;;;;;25.17;7.10;;;;;;;9.02;95.00;96632.47;5016386;28;20222;-69
2021/11/16 02:11:24;;;;;;;22.43;6.97;;;;;;;8.67;95.64;96636.06;5016496;28;20201;-70
2021/11/16 02:13:52;;;;;;;26.37;8.43;;;;;;;8.72;94.94;96641.69;5016916;28;20225;-71
2021/11/16 02:16:19;;;;;;;18.03;7.57;;;;;;;8.67;95.65;96649.19;5015933;28;20697;-72
2021/11/16 02:18:46;;;;;;;17.23;6.80;;;;;;;8.38;95.99;96647.03;5016200;28;20721;-70
2021/11/16 02:21:15;;;;;;;27.10;6.77;;;;;;;8.61;95.88;96638.50;5016427;28;20709;-73
2021/11/16 02:23:43;;;;;;;19.37;5.30;;;;;;;8.54;96.44;96643.53;5016420;28;20197;-71
2021/11/16 02:26:10;;;;;;;26.17;6.60;;;;;;;8.55;96.27;96634.69;5016130;28;20419;-70
2021/11/16 02:28:37;;;;;;;20.03;7.37;;;;;;;8.58;95.28;96639.63;5016554;28;20202;-69
2021/11/16 02:31:05;;;;;;;13.00;6.33;;;;;;;8.71;95.19;96639.22;5013788;28;20248;-68
2021/11/16 02:33:32;;;;;;;17.83;7.80;;;;;;;8.48;95.68;96632.00;5016403;28;20202;-73
2021/11/16 02:35:58;;;;;;;18.33;7.43;;;;;;;8.49;95.61;96635.31;5016189;28;20205;-73
2021/11/16 02:38:27;;;;;;;17.37;7.00;;;;;;;8.88;95.63;96631.22;5016266;28;20209;-70
2021/11/16 02:40:53;;;;;;;16.80;6.70;;;;;;;8.47;95.68;96627.75;5016368;28;20259;-73
2021/11/16 02:43:21;;;;;;;31.53;6.43;;;;;;;8.61;95.98;96618.28;5015978;28;20209;-72
2021/11/16 02:45:48;;;;;;;15.43;8.30;;;;;;;8.61;95.95;96617.47;5017397;28;20255;-72
2021/11/16 02:48:16;;;;;;;15.77;6.83;;;;;;;8.83;95.32;96627.44;5019831;28;20300;-71
2021/11/16 02:50:45;;;;;;;24.50;8.60;;;;;;;8.47;95.55;96635.63;5020054;28;21008;-72
2021/11/16 02:53:13;;;;;;;17.30;7.37;;;;;;;8.39;96.95;96633.75;5020831;28;20577;-69
2021/11/16 02:55:42;;;;;;;16.37;5.57;;;;;;;8.70;96.19;96633.13;5019462;28;20206;-72
2021/11/16 02:58:10;;;;;;;11.93;5.83;;;;;;;8.57;95.76;96637.97;5020039;28;20197;-69
2021/11/16 03:00:38;;;;;;;19.57;6.80;;;;;;;8.70;95.18;96624.41;5019667;28;20236;-73
2021/11/16 03:03:05;;;;;;;24.40;6.90;;;;;;;8.51;94.69;96622.00;5020117;28;20840;-71
2021/11/16 03:05:34;;;;;;;14.37;7.53;;;;;;;8.36;95.37;96627.97;5019509;28;20215;-72
2021/11/16 03:08:02;;;;;;;28.60;7.87;;;;;;;7.89;98.08;96642.34;5020659;28;20288;-68
2021/11/16 03:10:31;;;;;;;34.17;9.20;;;;;;;8.17;98.59;96634.25;5019772;28;20228;-70
2021/11/16 03:12:59;;;;;;;28.37;7.40;;;;;;;8.41;97.61;96630.97;5019523;28;20287;-71
2021/11/16 03:15:26;;;;;;;30.40;9.43;;;;;;;8.20;97.34;96628.69;5015833;28;20210;-71
2021/11/16 03:17:53;;;;;;;22.53;9.07;;;;;;;8.36;97.32;96626.16;5020930;28;20206;-69
2021/11/16 03:20:20;;;;;;;21.63;7.93;;;;;;;8.41;97.28;96620.47;5019796;28;20230;-70
2021/11/16 03:22:51;;;;;;;20.57;6.50;;;;;;;8.54;96.50;96622.53;5019048;28;20288;-70
2021/11/16 03:25:18;;;;;;;14.23;7.60;;;;;;;8.53;96.31;96628.75;5020065;28;20882;-69
2021/11/16 03:27:50;;;;;;;18.70;6.63;;;;;;;8.39;96.18;96627.66;5018658;28;20213;-71
2021/11/16 03:30:18;;;;;;;30.83;8.30;;;;;;;8.44;96.54;96621.00;5016634;28;20228;-71
2021/11/16 03:32:45;;;;;;;25.27;7.23;;;;;;;8.33;96.63;96633.56;5019469;28;20210;-72
2021/11/16 03:35:11;;;;;;;24.70;8.13;;;;;;;8.23;97.12;96638.06;5019693;28;20202;-69
2021/11/16 03:37:44;;;;;;;15.30;5.07;;;;;;;8.40;96.75;96630.16;5018448;28;20801;-73
2021/11/16 03:40:12;;;;;;;8.10;4.87;;;;;;;8.29;96.78;96621.72;5019640;28;20587;-70
2021/11/16 03:42:42;;;;;;;17.80;5.87;;;;;;;8.22;97.06;96621.50;5019445;28;20225;-72
2021/11/16 03:45:10;;;;;;;15.23;6.90;;;;;;;7.89;98.67;96623.97;5019369;28;20197;-69
2021/11/16 03:47:38;;;;;;;17.87;7.50;;;;;;;8.30;98.46;96618.94;5018582;28;20202;-72
2021/11/16 03:50:06;;;;;;;20.27;6.73;;;;;;;8.40;97.74;96621.44;5019193;28;20229;-73
2021/11/16 03:52:38;;;;;;;21.37;6.70;;;;;;;8.36;96.03;96623.53;5019221;28;20209;-70
2021/11/16 03:55:05;;;;;;;22.77;7.40;;;;;;;8.54;96.30;96633.03;5019398;28;20217;-70
2021/11/16 03:57:32;;;;;;;15.27;5.63;;;;;;;8.34;95.75;96628.13;5017195;28;20205;-68
2021/11/16 03:59:59;;;;;;;22.43;7.20;;;;;;;8.04;96.27;96623.31;5018987;28;20304;-72
2021/11/16 04:02:26;;;;;;;15.33;6.10;;;;;;;8.23;96.29;96628.38;5018785;28;20205;-71
2021/11/16 04:04:55;;;;;;;25.80;7.03;;;;;;;8.70;95.97;96637.56;5019223;28;20567;-69
2021/11/16 04:07:22;;;;;;;29.13;9.03;;;;;;;8.52;94.86;96634.16;5017991;28;20263;-69
2021/11/16 04:09:48;;;;;;;33.87;7.53;;;;;;;8.32;96.32;96624.81;5018701;28;20221;-70
2021/11/16 04:12:16;;;;;;;23.87;6.73;;;;;;;8.36;96.27;96635.84;5019223;28;20225;-72
2021/11/16 04:14:43;;;;;;;13.40;4.90;;;;;;;8.49;95.58;96645.00;5018958;28;20206;-69
2021/11/16 04:17:09;;;;;;;14.27;5.47;;;;;;;8.42;95.24;96637.88;5017685;28;20206;-72
2021/11/16 04:19:36;;;;;;;16.83;7.47;;;;;;;8.30;95.75;96636.47;5018976;28;20225;-73
2021/11/16 04:22:05;;;;;;;13.93;5.20;;;;;;;8.56;96.30;96636.31;5018821;28;20233;-71
2021/11/16 04:24:31;;;;;;;19.80;8.30;;;;;;;8.25;96.16;96631.69;5018658;28;20225;-70
2021/11/16 04:26:58;;;;;;;11.53;4.30;;;;;;;8.34;95.68;96628.13;5017473;28;20213;-69
2021/11/16 04:29:24;;;;;;;18.97;6.27;;;;;;;8.39;95.89;96632.91;5015979;28;20230;-69
2021/11/16 04:31:51;;;;;;;20.40;4.63;;;;;;;8.42;95.76;96648.38;5018884;28;20198;-69
2021/11/16 04:34:18;;;;;;;21.07;5.87;;;;;;;8.39;95.69;96644.25;5017963;28;20213;-71
2021/11/16 04:36:45;;;;;;;20.23;6.33;;;;;;;8.41;95.43;96631.78;5017909;28;20206;-73
2021/11/16 04:39:12;;;;;;;26.70;6.37;;;;;;;8.49;96.15;96637.13;5018621;28;20236;-70
2021/11/16 04:41:39;;;;;;;13.30;4.33;;;;;;;8.41;95.72;96637.03;5017756;28;20337;-72
2021/11/16 04:44:07;;;;;;;17.20;6.20;;;;;;;7.96;97.24;96625.84;5018150;28;20800;-73
2021/11/16 04:46:34;;;;;;;19.13;7.43;;;;;;;8.09;97.21;96631.53;5017747;28;20676;-70
2021/11/16 04:49:04;;;;;;;13.47;5.43;;;;;;;8.31;96.10;96636.34;5018062;28;20229;-72
2021/11/16 04:51:45;;;;;;;23.47;7.57;;;;;;;8.18;96.51;96625.38;5018281;28;20685;-70
2021/11/16 04:54:32;;;;;;;15.23;5.67;;;;;;;8.34;96.54;96628.13;5018288;28;20651;-70
2021/11/16 04:59:51;;;;;;;21.20;7.50;;;;;;;8.16;97.69;96626.50;5017877;28;20232;-72
2021/11/16 05:02:34;;;;;;;15.30;5.47;;;;;;;8.45;96.36;96625.25;5018189;28;20251;-70
2021/11/16 05:05:01;;;;;;;10.80;4.30;;;;;;;8.33;96.68;96613.34;5017471;28;20434;-71
2021/11/16 05:07:31;;;;;;;21.17;5.33;;;;;;;7.87;97.90;96607.56;5016910;28;20626;-75
2021/11/16 05:10:01;;;;;;;17.60;6.93;;;;;;;8.26;98.16;96616.75;5017619;28;20237;-69
2021/11/16 05:12:31;;;;;;;26.97;7.83;;;;;;;8.38;97.91;96626.03;5018075;28;20224;-69
2021/11/16 05:15:01;;;;;;;18.57;6.47;;;;;;;8.43;96.66;96639.53;5017566;28;20202;-69
2021/11/16 05:17:28;;;;;;;12.97;5.57;;;;;;;8.37;96.57;96634.88;5016690;28;20263;-69
2021/11/16 05:19:55;;;;;;;15.37;6.03;;;;;;;8.18;96.76;96629.81;5017857;28;20226;-69
2021/11/16 05:22:23;;;;;;;18.17;6.57;;;;;;;8.40;96.25;96629.31;5017564;28;20233;-72
2021/11/16 05:24:50;;;;;;;24.03;5.47;;;;;;;8.51;95.45;96628.09;5017656;28;20205;-70
2021/11/16 05:27:18;;;;;;;13.00;7.27;;;;;;;8.50;96.46;96630.84;5016618;28;20230;-69
2021/11/16 05:29:45;;;;;;;20.40;7.33;;;;;;;8.46;95.59;96633.97;5014218;28;20222;-69
2021/11/16 05:32:11;;;;;;;22.00;6.83;;;;;;;8.51;94.91;96633.34;5017250;28;20205;-69
2021/11/16 05:34:38;;;;;;;21.17;7.47;;;;;;;8.47;95.35;96638.25;5017494;28;21257;-70
2021/11/16 05:37:05;;;;;;;20.27;7.40;;;;;;;8.51;95.43;96625.47;5016370;28;20202;-71
2021/11/16 05:39:32;;;;;;;15.83;5.57;;;;;;;8.44;95.10;96626.25;5017157;28;20230;-70
2021/11/16 05:41:59;;;;;;;26.97;5.57;;;;;;;8.60;94.32;96632.44;5017434;28;20236;-70
2021/11/16 05:44:26;;;;;;;19.53;4.30;;;;;;;8.77;95.11;96631.53;5017381;28;20213;-69
2021/11/16 05:46:53;;;;;;;23.03;6.07;;;;;;;8.59;94.81;96630.78;5016348;28;20201;-73
2021/11/16 05:49:21;;;;;;;16.67;6.57;;;;;;;8.73;93.76;96627.56;5017470;28;20232;-73
2021/11/16 05:51:47;;;;;;;17.73;4.90;;;;;;;8.63;93.92;96632.09;5017539;28;20601;-69
2021/11/16 05:54:17;;;;;;;16.27;7.30;;;;;;;8.62;93.90;96634.88;5016764;28;20217;-71
2021/11/16 05:56:45;;;;;;;17.00;5.10;;;;;;;8.75;94.16;96620.34;5015955;28;20775;-71
2021/11/16 05:59:11;;;;;;;12.90;4.87;;;;;;;8.81;93.29;96622.34;5016777;28;20225;-73
2021/11/16 06:01:41;;;;;;;17.57;4.70;;;;;;;8.72;93.80;96618.03;5016814;28;20598;-69
2021/11/16 06:04:08;;;;;;;15.47;6.07;;;;;;;8.33;95.74;96615.16;5016912;28;20209;-70
2021/11/16 06:06:35;;;;;;;12.73;5.30;;;;;;;8.58;95.05;96615.97;5016012;28;20683;-69
2021/11/16 06:09:05;;;;;;;17.00;5.80;;;;;;;8.54;95.28;96609.41;5016426;28;20265;-70
2021/11/16 06:11:32;;;;;;;17.27;6.97;;;;;;;8.48;95.08;96605.72;5016425;28;20224;-70
2021/11/16 06:13:59;;;;;;;8.80;4.10;;;;;;;8.48;94.76;96600.47;5017140;28;20248;-72
2021/11/16 06:16:26;;;;;;;17.67;5.60;;;;;;;8.34;95.17;96616.78;5015912;28;20214;-70
2021/11/16 06:18:56;;;;;;;19.10;6.57;;;;;;;8.40;95.09;96610.94;5016496;28;20337;-72
2021/11/16 06:21:24;;;;;;;10.23;5.57;;;;;;;8.02;96.31;96622.63;5015910;28;21162;-72
2021/11/16 06:23:50;;;;;;;7.47;4.20;;;;;;;7.80;96.79;96630.13;5016890;28;20666;-70
2021/11/16 06:26:17;;;;;;;16.77;5.40;;;;;;;7.77;98.01;96629.63;5015727;28;20221;-72
2021/11/16 06:28:44;;;;;;;14.73;5.20;;;;;;;7.56;98.16;96631.69;5016454;28;20209;-71
2021/11/16 06:31:11;;;;;;;17.13;3.67;;;;;;;7.68;98.23;96641.00;5014059;28;20217;-72
2021/11/16 06:33:37;;;;;;;9.10;4.33;;;;;;;7.60;98.39;96633.88;5016562;28;20209;-71
2021/11/16 06:36:06;;;;;;;12.77;3.70;;;;;;;8.03;97.70;96628.69;5016127;28;20986;-71
2021/11/16 06:38:33;;;;;;;13.13;3.87;;;;;;;7.65;98.49;96641.28;5016115;28;20227;-74
2021/11/16 06:40:59;;;;;;;9.93;3.90;;;;;;;7.62;98.04;96634.53;5016903;28;20198;-71
2021/11/16 06:43:28;;;;;;;7.47;2.90;;;;;;;7.90;98.19;96636.97;5016145;28;20210;-71
2021/11/16 06:45:57;;;;;;;7.67;3.83;;;;;;;7.68;99.41;96641.00;5015893;28;20667;-71
2021/11/16 06:48:24;;;;;;;11.47;5.33;;;;;;;7.78;98.43;96649.59;5016614;28;20201;-71
2021/11/16 06:50:52;;;;;;;19.97;4.13;;;;;;;7.83;98.25;96648.22;5015672;28;20225;-71
2021/11/16 06:53:24;;;;;;;8.23;4.27;;;;;;;8.27;97.03;96652.53;5015119;28;20296;-71
2021/11/16 06:55:52;;;;;;;13.73;4.33;;;;;;;7.88;97.17;96667.75;5014477;28;20810;-73
2021/11/16 06:58:19;;;;;;;10.87;4.00;;;;;;;8.00;97.07;96663.91;5015236;28;20202;-71
2021/11/16 07:00:45;;;;;;;5.60;3.07;;;;;;;7.82;97.48;96664.91;5015617;28;21273;-74
2021/11/16 07:03:18;;;;;;;8.63;3.90;;;;;;;8.06;97.15;96658.06;5015677;28;20236;-74
2021/11/16 07:05:47;;;;;;;7.83;3.50;;;;;;;8.20;96.34;96654.94;5013184;28;20591;-72
2021/11/16 07:08:14;;;;;;;15.77;4.43;;;;;;;7.68;97.72;96657.56;5015829;28;20206;-71
2021/11/16 07:10:42;;;;;;;7.70;3.87;;;;;;;8.10;96.85;96642.84;5015864;28;20233;-71
2021/11/16 07:13:10;;;;;;;10.87;4.70;;;;;;;7.75;98.38;96653.38;5015421;28;20277;-72
2021/11/16 07:15:38;;;;;;;5.57;3.67;;;;;;;7.96;99.48;96659.13;5017212;28;20667;-71
2021/11/16 07:18:06;;;;;;;17.00;4.83;;;;;;;7.97;97.89;96663.41;5016350;28;20210;-73
2021/11/16 07:20:33;;;;;;;9.53;4.03;;;;;;;8.05;97.63;96660.84;5015394;28;20221;-71
2021/11/16 07:23:00;;;;;;;8.07;2.80;;;;;;;7.58;98.63;96669.91;5015341;28;20221;-71
2021/11/16 07:25:28;;;;;;;8.77;2.97;;;;;;;7.76;98.46;96670.75;5015997;28;20216;-73
2021/11/16 07:27:56;;;;;;;6.27;3.17;;;;;;;7.83;98.87;96669.19;5014788;28;20221;-72
2021/11/16 07:30:25;;;;;;;7.53;4.03;;;;;;;7.89;98.13;96677.28;5013429;28;20244;-70
2021/11/16 07:32:53;;;;;;;4.90;2.00;;;;;;;7.64;99.25;96679.81;5018896;28;20546;-71
2021/11/16 07:35:25;;;;;;;16.67;4.20;;;;;;;7.78;99.27;96679.31;5019194;28;20246;-74
2021/11/16 07:37:55;;;;;;;8.73;4.70;;;;;;;7.85;98.74;96680.34;5019111;28;20205;-71
2021/11/16 07:40:22;;;;;;;8.60;3.43;;;;;;;7.37;99.79;96700.81;5019850;28;20693;-71
2021/11/16 07:42:52;;;;;;;14.27;4.63;;;;;;;7.87;98.65;96691.53;5018800;28;20929;-73
2021/11/16 07:45:22;;;;;;;7.93;4.50;;;;;;;7.87;98.24;96691.53;5019095;28;20206;-71
2021/11/16 07:47:51;;;;;;;17.07;6.73;;;;;;;7.74;99.29;96688.47;5019619;28;21294;-71
2021/11/16 07:50:36;;;;;;;16.43;7.37;;;;;;;7.74;98.93;96698.94;5018606;28;20226;-70
2021/11/16 07:53:16;;;;;;;13.23;6.33;;;;;;;8.15;97.98;96698.38;5018888;28;20859;-73
2021/11/16 07:55:44;;;;;;;8.20;3.10;;;;;;;7.99;98.82;96703.44;5018734;28;20198;-72
2021/11/16 07:58:14;;;;;;;6.27;2.80;;;;;;;7.90;98.48;96699.94;5019705;28;20744;-71
2021/11/16 08:00:45;;;;;;;16.87;5.03;;;;;;;7.99;98.81;96700.81;5018696;28;20222;-70
2021/11/16 08:03:14;;;;;;;10.03;4.20;;;;;;;8.00;98.58;96699.84;5019302;28;20223;-72
2021/11/16 08:05:45;;;;;;;11.63;3.50;;;;;;;7.93;98.46;96699.63;5018662;28;21307;-70
2021/11/16 08:08:25;;;;;;;9.70;3.13;;;;;;;8.24;97.46;96692.22;5018626;28;20297;-73
2021/11/16 08:11:07;;;;;;;8.47;3.57;;;;;;;8.34;96.86;96683.28;5018234;28;20245;-71
2021/11/16 08:13:35;;;;;;;14.97;4.07;;;;;;;8.24;97.26;96695.66;5018787;28;20201;-72
2021/11/16 08:16:11;;;;;;;6.57;3.73;;;;;;;8.53;97.48;96697.03;5018028;28;20210;-73
2021/11/16 08:18:46;;;;;;;7.77;3.33;;;;;;;8.18;97.22;96698.06;5017852;28;20212;-73
2021/11/16 08:21:14;;;;;;;4.60;2.30;;;;;;;8.16;96.95;96706.09;5017285;28;20201;-75
2021/11/16 08:23:50;;;;;;;8.07;3.40;;;;;;;8.45;96.11;96700.59;5017827;28;20728;-73
2021/11/16 08:26:18;;;;;;;9.00;3.93;;;;;;;8.01;97.75;96701.50;5017929;28;20216;-71
2021/11/16 08:28:45;;;;;;;6.33;2.37;;;;;;;8.29;96.70;96698.66;5015757;28;20204;-71
2021/11/16 08:31:15;;;;;;;12.90;4.03;;;;;;;8.43;96.95;96706.00;5017867;28;20209;-72
2021/11/16 08:33:42;;;;;;;8.43;4.70;;;;;;;8.35;97.36;96712.97;5017815;28;20275;-74
2021/11/16 08:36:09;;;;;;;12.80;4.47;;;;;;;8.46;96.67;96707.50;5017723;28;20587;-73
2021/11/16 08:38:37;;;;;;;14.60;4.80;;;;;;;8.52;95.92;96707.72;5015591;28;20210;-72
2021/11/16 08:41:05;;;;;;;6.53;2.70;;;;;;;8.30;96.40;96702.09;5014878;28;20940;-72
2021/11/16 08:43:36;;;;;;;6.67;3.13;;;;;;;8.26;95.94;96700.75;5015367;28;20222;-74
2021/11/16 08:46:05;;;;;;;10.00;4.50;;;;;;;8.39;95.47;96696.78;5017002;28;20210;-71
2021/11/16 08:48:35;;;;;;;7.33;3.63;;;;;;;8.19;96.29;96697.91;5017644;28;20206;-74
2021/11/16 08:51:06;;;;;;;17.93;4.23;;;;;;;7.94;97.19;96690.78;5017335;28;20690;-71
2021/11/16 08:53:35;;;;;;;6.90;3.07;;;;;;;7.90;98.31;96693.84;5017594;28;20293;-71
2021/11/16 08:56:05;;;;;;;9.30;4.20;;;;;;;8.13;97.99;96689.78;5016839;28;20239;-76
2021/11/16 08:58:32;;;;;;;19.53;3.40;;;;;;;7.91;97.28;96685.00;5017120;28;20478;-75
2021/11/16 09:01:02;;;;;;;10.23;2.93;;;;;;;8.08;97.30;96692.03;5017518;28;20210;-75
2021/11/16 09:03:31;;;;;;;3.73;2.37;;;;;;;8.04;97.17;96678.41;5018273;28;20249;-76
2021/11/16 09:06:15;;;;;;;4.73;2.73;;;;;;;8.23;96.54;96680.06;5016573;28;20210;-75
2021/11/16 09:08:42;;;;;;;6.17;2.77;;;;;;;7.92;97.51;96679.59;5016187;28;20225;-74
2021/11/16 09:11:14;;;;;;;12.83;3.83;;;;;;;8.11;97.46;96668.94;5017446;28;20758;-74
2021/11/16 09:13:41;;;;;;;4.80;3.40;;;;;;;7.76;97.85;96676.00;5017129;28;20205;-73
2021/11/16 09:16:10;;;;;;;6.47;3.77;;;;;;;8.11;97.28;96676.00;5016515;28;20212;-72
2021/11/16 09:18:40;;;;;;;7.60;3.40;;;;;;;8.11;97.24;96686.50;5017286;28;20209;-72
2021/11/16 09:21:11;;;;;;;7.27;3.97;;;;;;;8.03;97.18;96683.78;5016937;28;20532;-72
2021/11/16 09:23:41;;;;;;;6.57;3.73;;;;;;;8.19;95.85;96683.97;5016819;28;20225;-73
2021/11/16 09:26:12;;;;;;;4.93;2.77;;;;;;;8.16;94.99;96684.25;5016482;28;20202;-74
2021/11/16 09:28:46;;;;;;;10.57;2.93;;;;;;;8.32;95.83;96690.47;5015253;28;20340;-73
2021/11/16 09:31:18;;;;;;;7.30;3.37;;;;;;;8.31;95.21;96691.47;5016581;28;20208;-71
2021/11/16 09:33:45;;;;;;;7.37;2.77;;;;;;;8.28;96.05;96702.25;5016874;28;20209;-75
2021/11/16 09:36:20;;;;;;;6.10;3.27;;;;;;;8.78;93.87;96704.13;5016340;28;20489;-71
2021/11/16 09:38:51;;;;;;;9.10;4.17;;;;;;;8.31;94.85;96701.97;5017191;28;20229;-71
2021/11/16 09:41:30;;;;;;;13.60;5.07;;;;;;;8.46;94.23;96716.19;5016607;28;21021;-74
2021/11/16 09:44:03;;;;;;;19.37;4.57;;;;;;;8.41;94.08;96707.94;5016703;28;20272;-72
2021/11/16 09:46:30;;;;;;;16.13;4.33;;;;;;;7.90;94.87;96715.69;5015701;28;20481;-71
2021/11/16 09:48:58;;;;;;;1.37;1.27;;;;;;;7.83;95.13;96712.94;5016442;28;20221;-71
2021/11/16 09:51:27;;;;;;;5.30;2.37;;;;;;;8.03;93.78;96705.63;5016504;28;20202;-71
2021/11/16 09:54:03;;;;;;;14.13;5.30;;;;;;;8.25;92.58;96706.97;5015798;28;20381;-71
2021/11/16 09:56:31;;;;;;;12.30;3.60;;;;;;;8.09;93.57;96709.44;5015607;28;20201;-71
2021/11/16 09:58:59;;;;;;;11.40;4.03;;;;;;;7.80;93.51;96708.00;5016575;28;20275;-74
2021/11/16 10:01:28;;;;;;;6.30;3.40;;;;;;;7.96;95.14;96703.75;5016699;28;20206;-73
2021/11/16 10:04:11;;;;;;;8.90;4.27;;;;;;;8.28;92.23;96704.06;5016785;28;20228;-70
2021/11/16 10:06:39;;;;;;;13.90;4.33;;;;;;;8.35;92.25;96699.84;5015328;28;20303;-74
2021/11/16 10:09:08;;;;;;;12.73;4.17;;;;;;;8.31;92.63;96696.72;5015997;28;20630;-72
2021/11/16 10:11:40;;;;;;;5.03;3.13;;;;;;;8.20;91.26;96699.56;5016600;28;20206;-71
2021/11/16 10:14:07;;;;;;;9.73;3.77;;;;;;;8.02;91.53;96703.16;5017271;28;20287;-74
2021/11/16 10:16:33;;;;;;;16.77;4.17;;;;;;;7.97;91.63;96700.16;5015458;28;20206;-71
2021/11/16 10:19:00;;;;;;;9.27;3.43;;;;;;;8.21;91.17;96710.88;5015361;28;20229;-71
2021/11/16 10:21:26;;;;;;;10.83;4.97;;;;;;;8.19;91.06;96711.03;5015830;28;20205;-71
2021/11/16 10:23:56;;;;;;;10.03;3.70;;;;;;;8.57;91.57;96702.81;5016512;28;20944;-72
2021/11/16 10:26:31;;;;;;;8.93;4.50;;;;;;;8.88;89.73;96699.56;5015214;28;20205;-71
2021/11/16 10:28:58;;;;;;;6.37;3.27;;;;;;;7.89;91.43;96706.16;5012515;28;20225;-71
2021/11/16 10:31:29;;;;;;;13.70;4.83;;;;;;;8.37;90.98;96703.16;5016269;28;20213;-74
2021/11/16 10:33:56;;;;;;;9.90;5.10;;;;;;;7.86;90.99;96712.66;5015751;28;20194;-74
2021/11/16 10:36:24;;;;;;;5.50;3.57;;;;;;;8.32;91.33;96694.91;5016017;28;20679;-71
2021/11/16 10:38:53;;;;;;;6.83;3.43;;;;;;;8.54;91.77;96698.69;5016001;28;20228;-70
2021/11/16 10:41:22;;;;;;;11.87;4.60;;;;;;;8.44;91.37;96693.69;5015949;28;20210;-72
2021/11/16 10:43:52;;;;;;;11.63;4.67;;;;;;;8.20;90.74;96702.19;5015805;28;20222;-71
2021/11/16 10:46:20;;;;;;;14.23;3.60;;;;;;;8.28;90.62;96693.56;5015012;28;20214;-74
2021/11/16 10:48:48;;;;;;;11.90;5.13;;;;;;;8.48;90.32;96689.75;5015053;28;21220;-74
2021/11/16 10:51:16;;;;;;;14.27;4.87;;;;;;;8.48;89.87;96695.03;5015710;28;20201;-73
2021/11/16 10:53:49;;;;;;;16.03;3.97;;;;;;;8.82;89.30;96687.06;5016038;28;20642;-73
2021/11/16 10:56:18;;;;;;;13.53;4.83;;;;;;;8.65;89.58;96687.91;5015713;28;20202;-71
2021/11/16 10:58:46;;;;;;;10.60;3.90;;;;;;;8.40;89.82;96680.06;5016269;28;20202;-71
2021/11/16 11:01:15;;;;;;;12.03;4.60;;;;;;;8.69;89.37;96678.78;5015873;28;20666;-71
2021/11/16 11:03:44;;;;;;;16.77;6.30;;;;;;;8.16;90.30;96676.38;5015123;28;20226;-74
2021/11/16 11:06:14;;;;;;;13.07;5.57;;;;;;;8.36;90.59;96667.38;5015254;28;20737;-70
2021/11/16 11:08:43;;;;;;;9.07;3.60;;;;;;;8.38;89.65;96668.06;5019256;28;20592;-74
2021/11/16 11:11:17;;;;;;;11.07;4.27;;;;;;;8.51;89.44;96675.38;5019438;28;20373;-71
2021/11/16 11:13:47;;;;;;;14.77;4.77;;;;;;;8.38;90.43;96673.31;5018929;28;20202;-71
2021/11/16 11:16:18;;;;;;;12.83;3.50;;;;;;;8.71;89.24;96668.09;5019022;28;20236;-72
2021/11/16 11:18:48;;;;;;;7.60;3.77;;;;;;;8.58;88.91;96678.22;5019312;28;20234;-72
2021/11/16 11:21:27;;;;;;;9.67;4.40;;;;;;;8.65;87.46;96674.78;5019433;28;20298;-73
2021/11/16 11:23:56;;;;;;;9.77;4.83;;;;;;;8.50;88.18;96673.72;5019348;28;20225;-71
2021/11/16 11:26:32;;;;;;;12.27;4.67;;;;;;;8.67;87.79;96669.41;5019134;28;20295;-72
2021/11/16 11:29:18;;;;;;;8.97;3.47;;;;;;;8.53;88.90;96665.53;5015315;28;20225;-72
2021/11/16 11:31:46;;;;;;;9.33;4.53;;;;;;;8.20;89.66;96669.88;5019006;28;20616;-72
2021/11/16 11:34:13;;;;;;;11.57;4.73;;;;;;;8.13;88.90;96666.16;5019719;28;20551;-72
2021/11/16 11:36:41;;;;;;;7.17;3.03;;;;;;;8.42;88.90;96658.88;5017818;28;20228;-71
2021/11/16 11:39:22;;;;;;;12.30;3.60;;;;;;;8.80;87.36;96654.84;5018730;28;20247;-71
2021/11/16 11:41:51;;;;;;;5.60;2.93;;;;;;;8.52;89.16;96645.47;5018940;28;20218;-71
2021/11/16 11:44:20;;;;;;;5.87;2.43;;;;;;;8.35;89.65;96636.81;5019129;28;20233;-71
2021/11/16 11:46:56;;;;;;;7.20;2.70;;;;;;;8.51;87.95;96633.34;5017640;28;20652;-71